AirNav   Air Wisconsin Up To $57,000 Bonus
 
 1272 users online  

1FL8 Cape Canaveral Hospital Heliport
Cocoa Beach, Florida, USA

GOING TO COCOA BEACH?


FAA INFORMATION EFFECTIVE 05 DECEMBER 2019

Location

FAA Identifier: 1FL8
Lat/Long: 28-21-40.0000N 080-37-20.0000W
28-21.666667N 080-37.333333W
28.3611111,-80.6222222
(estimated)
Elevation: 6 ft. / 2 m (estimated)
Variation: 05W (1995)
From city: 1 mile W of COCOA BEACH, FL
Time zone: UTC -5 (UTC -4 during Daylight Saving Time)
Zip code: 32931

Heliport Operations

Heliport use: Private use. Permission required prior to landing
Activation date: 01/2000
Control tower: no
ARTCC: JACKSONVILLE CENTER
FSS: SAINT PETERSBURG FLIGHT SERVICE STATION
Attendance: UNATNDD
Wind indicator: lighted
Segmented circle: no
Lights: FOR PERIMETER LGTS CALL 321-799-7120.

Heliport Communications

WX AWOS-3 at COI (4 nm W): 119.025 (321-986-8864)
WX AWOS-3PT at TIX (13 nm NW): 120.625 (321-567-6090)
WX ASOS at MLB (16 nm S): PHONE 321-951-7575
WX AWOS-3 at X21 (19 nm NW): 119.725 (321-385-0384)

Nearby radio navigation aids

VOR radial/distance  VOR name  Freq  Var
MLBr010/15.4MELBOURNE VOR/DME110.0007W
ORLr106/39.1ORLANDO VORTAC112.2000E

Heliport Services

Runway Information

Helipad H1

Dimensions: 50 x 50 ft. / 15 x 15 m
Surface: concrete
Runway edge lights: PERI
Latitude: 28-21.666667N
Longitude: 080-37.333333W
Elevation: 6.0 ft.
Traffic pattern: leftleft

Heliport Ownership and Management from official FAA records

Ownership: Privately-owned
Owner: HEALTH FIRST
CAPE CANAVERAL HOSPITAL, 701 WEST COCOA BEACH CAUSEWAY
COCOA BEACH, FL 32931
Phone 321-799-7111
Manager: ROBIN RICE SAFETY/SECURITY OFFICER
1350 S. HICKORY ST.
MELBOURNE, FL 32901
Phone (321) 434-3220

Additional Remarks

FOR CD CTC ORLANDO APCH AT 407-852-7553.

Instrument Procedures

There are no published instrument procedures at 1FL8.

Some nearby airports with instrument procedures:

KCOI - Merritt Island Airport (4 nm W)
KXMR - Cape Canaveral Air Force Station Skid Strip (7 nm NE)
KCOF - Patrick Air Force Base (8 nm S)
KTIX - Space Coast Regional Airport (13 nm NW)
KMLB - Melbourne International Airport (16 nm S)
KTTS - NASA Shuttle Landing Facility (16 nm N)
X21 - Arthur Dunn Air Park (19 nm NW)
 
Loc | Ops | Rwys | IFR | FBO | Links
Com | Nav | Svcs | Stats | Notes


 
Area around 1FL8 (Cape Canaveral Hospital Heliport)
 
Road maps at: MapQuest Bing Google
 
Aerial photo
WARNING: Photo may not be current or correct
Aerial photo of 1FL8 (Cape Canaveral Hospital Heliport)
Photo by Don F. Pease
Photo taken 20-Nov-2006
looking south.

Do you have a better or more recent aerial photo of Cape Canaveral Hospital Heliport that you would like to share? If so, please send us your photo.

 
Sectional chart

 
Airport distance calculator
Flying to Cape Canaveral Hospital Heliport? Find the distance to fly.

From to 1FL8

Sunrise and sunset
Times for 11-Dec-2019
 Local
(UTC-5)
 Zulu
(UTC)
Morning civil twilight06:4011:40
Sunrise07:0612:06
Sunset17:2622:26
Evening civil twilight17:5222:52

Current date and time
Zulu (UTC)  11-Dec-2019 21:01:41
Local (UTC-5)  11-Dec-2019 16:01:41
 
METAR
KXMR 
8nm NE 
112056Z AUTO 36014KT 10SM BKN010 22/20 A3018 RMK AO2 SLP223 T02190196 $
KCOF 
9nm S 
112056Z AUTO 01013KT 10SM CLR 23/22 A3018 RMK AO2 SLP224 T02260221 $
KTIX 
13nm NW 
112050Z 01018KT 5SM BR OVC008 22/19 A3021
KMLB 
16nm S 
112053Z 01015KT 10SM FEW015 FEW038 24/20 A3018 RMK AO2 SLP218 60001 T02390200 53001
KTTS 
16nm N 
112056Z AUTO 01012G18KT 10SM OVC008 21/19 A3020 RMK AO2 SLP231 T02100189 FZRANO $
TAF
KCOF 
9nm S 
111900Z 1119/1301 02012G18KT 9999 VCSH SCT015 BKN030 QNH3018INS BECMG 1120/1121 02015G20KT 9999 VCSH OVC020 QNH3018INS BECMG 1122/1123 02015G23KT 9999 NSW BKN020 OVC030 QNH3020INS BECMG 1212/1213 05015G23KT 9999 BKN020 OVC030 QNH3018INS BECMG 1221/1222 07012G18KT 9999 BKN020 QNH3015INS TX25/1121Z TN21/1201Z
KTIX 
13nm NW 
111911Z 1119/1218 01014KT P6SM SCT008 BKN030 TEMPO 1119/1121 5SM BR BKN008 FM112100 02014G21KT P6SM VCSH BKN015 OVC050 FM120300 03011KT P6SM SCT015 OVC030 FM121400 06012G20KT P6SM BKN020 BKN250
KMLB 
16nm S 
111830Z 1119/1218 04010KT P6SM VCSH BKN020 OVC080 FM112200 02014G21KT P6SM VCSH BKN015 OVC050 FM120400 03012KT P6SM SCT015 OVC030 FM121400 06014G22KT P6SM VCSH BKN025 OVC040
NOTAMs
Click for the latest NOTAMs
NOTAMs are issued by the DoD/FAA and will open in a separate window not controlled by AirNav.

 

 
 

Would you like to see your business listed on this page?

 If your business provides an interesting product or service to pilots, flight crews, aircraft, or users of the Cape Canaveral Hospital Heliport, you should consider listing it here.  To start the listing process, click on the button below
 
Add a business
 

Other Pages about Cape Canaveral Hospital Heliport

Update a link
 
Copyright © AirNav, LLC. All rights reserved. Privacy Policy  Contact